Time;durP1;ratioP1;P1;durP2;ratioP2;P2;SDS_P1;SDS_P2;PMS_P1;PMS_P2;Temp;Humidity;BMP_temperature;BMP_pressure;BME280_temperature;BME280_humidity;BME280_pressure;Samples;Min_cycle;Max_cycle;Signal;HPM_P1;HPM_P2
2021/06/11 00:00:29;;;;;;;6.40;3.20;;;17.30;99.90;;;;;;12390986;28;20881;-37
2021/06/11 00:06:35;;;;;;;7.82;3.08;;;17.50;99.90;;;;;;12393775;28;20038;-35
2021/06/11 00:12:41;;;;;;;8.00;3.08;;;17.50;99.90;;;;;;12395375;28;20613;-36
2021/06/11 00:18:43;;;;;;;11.50;3.55;;;17.40;99.90;;;;;;12394831;28;20057;-36
2021/06/11 00:24:45;;;;;;;5.95;3.05;;;17.50;99.90;;;;;;12388875;28;20062;-35
2021/06/11 00:30:47;;;;;;;8.75;3.20;;;17.60;99.90;;;;;;12391454;28;20123;-36
2021/06/11 00:36:49;;;;;;;8.95;3.20;;;17.40;99.90;;;;;;12388711;28;20384;-36
2021/06/11 00:42:51;;;;;;;6.53;3.08;;;17.40;99.90;;;;;;12394134;28;20537;-35
2021/06/11 00:48:53;;;;;;;6.82;3.22;;;17.20;99.90;;;;;;12383257;28;20043;-36
2021/06/11 00:54:54;;;;;;;12.40;3.22;;;17.20;99.90;;;;;;12387660;28;20071;-35
2021/06/11 01:00:56;;;;;;;6.03;2.95;;;17.30;99.90;;;;;;12386135;28;20054;-36
2021/06/11 01:06:58;;;;;;;5.05;2.50;;;16.90;99.90;;;;;;12387883;28;20844;-37
2021/06/11 01:13:01;;;;;;;5.60;3.20;;;16.80;99.90;;;;;;12388097;28;20469;-35
2021/06/11 01:19:05;;;;;;;5.32;3.05;;;16.60;99.90;;;;;;12381079;28;20050;-35
2021/06/11 01:25:13;;;;;;;8.18;3.47;;;16.70;99.90;;;;;;12388595;28;20079;-37
2021/06/11 01:31:17;;;;;;;4.95;3.10;;;16.80;99.90;;;;;;12385223;28;20050;-35
2021/06/11 01:37:23;;;;;;;9.27;3.47;;;16.60;99.90;;;;;;12384617;28;20136;-36
2021/06/11 01:43:26;;;;;;;9.65;3.83;;;16.80;99.90;;;;;;12383338;28;20676;-35
2021/06/11 01:49:29;;;;;;;9.82;4.13;;;16.80;99.90;;;;;;12382135;28;20108;-35
2021/06/11 01:55:33;;;;;;;10.25;3.65;;;16.80;99.90;;;;;;12384711;28;20058;-36
2021/06/11 02:01:36;;;;;;;7.07;3.85;;;16.80;99.90;;;;;;12385913;28;20057;-35
2021/06/11 02:07:38;;;;;;;8.43;3.47;;;16.60;99.90;;;;;;12385430;28;20050;-35
2021/06/11 02:13:43;;;;;;;6.97;3.15;;;16.50;99.90;;;;;;12380129;28;20068;-36
2021/06/11 02:19:46;;;;;;;10.05;3.22;;;16.40;99.90;;;;;;12379867;28;20450;-35
2021/06/11 02:25:48;;;;;;;12.33;3.60;;;16.30;99.90;;;;;;12381761;28;20874;-35
2021/06/11 02:31:50;;;;;;;9.32;3.35;;;16.40;99.90;;;;;;12379260;28;20130;-36
2021/06/11 02:37:53;;;;;;;6.80;3.03;;;16.20;99.90;;;;;;12381192;28;20054;-35
2021/06/11 02:43:57;;;;;;;;;;;16.10;99.90;;;;;;12379611;28;20061;-35
2021/06/11 02:50:06;;;;;;;10.75;3.65;;;16.00;99.90;;;;;;12384189;28;19980;-38
2021/06/11 02:56:11;;;;;;;13.93;4.47;;;16.20;99.90;;;;;;12382068;28;20708;-35
2021/06/11 03:02:21;;;;;;;15.18;3.53;;;16.30;99.90;;;;;;12388304;28;20050;-36
2021/06/11 03:08:26;;;;;;;10.10;3.80;;;16.30;99.90;;;;;;12389571;28;20050;-36
2021/06/11 03:14:29;;;;;;;7.95;3.45;;;16.10;99.90;;;;;;12392394;28;20050;-36
2021/06/11 03:20:36;;;;;;;6.33;3.40;;;16.10;99.90;;;;;;12390230;28;20123;-37
2021/06/11 03:26:51;;;;;;;6.75;4.40;;;16.10;99.90;;;;;;12390135;28;20050;-36
2021/06/11 03:33:09;;;;;;;5.75;4.25;;;16.00;99.90;;;;;;12389958;28;20064;-36
2021/06/11 03:39:18;;;;;;;14.05;4.38;;;16.00;99.90;;;;;;12390241;28;20134;-36
2021/06/11 03:45:21;;;;;;;10.35;4.65;;;15.90;99.90;;;;;;12386859;28;20096;-37
2021/06/11 03:51:25;;;;;;;7.72;3.90;;;16.00;99.90;;;;;;12387226;28;20104;-37
2021/06/11 03:57:29;;;;;;;15.57;4.50;;;16.00;99.90;;;;;;12396800;28;20092;-35
2021/06/11 04:03:31;;;;;;;15.07;4.53;;;15.90;99.90;;;;;;12383454;28;20054;-36
2021/06/11 04:09:53;;;;;;;12.85;4.65;;;15.90;99.90;;;;;;12385794;28;20119;-39
2021/06/11 04:15:57;;;;;;;10.32;4.40;;;16.10;99.90;;;;;;12390078;28;20052;-35
2021/06/11 04:22:03;;;;;;;9.68;4.47;;;16.10;99.90;;;;;;12390112;28;20050;-37
2021/06/11 04:28:07;;;;;;;12.13;4.55;;;16.10;99.90;;;;;;12384912;28;20050;-35
2021/06/11 04:34:16;;;;;;;10.27;4.53;;;16.20;99.90;;;;;;12388914;28;20046;-35
2021/06/11 04:40:18;;;;;;;8.35;4.63;;;16.20;99.90;;;;;;12386626;28;20061;-37
2021/06/11 04:46:20;;;;;;;8.07;4.88;;;16.30;99.90;;;;;;12381742;28;20145;-36
2021/06/11 04:52:22;;;;;;;7.47;5.40;;;16.50;99.90;;;;;;12386744;28;20099;-35
2021/06/11 04:58:26;;;;;;;6.88;5.13;;;16.50;99.90;;;;;;12384234;28;20050;-35
2021/06/11 05:04:28;;;;;;;7.05;5.32;;;16.50;99.90;;;;;;12381812;28;20132;-35
2021/06/11 05:10:30;;;;;;;10.63;4.95;;;16.60;99.90;;;;;;12381374;28;21682;-36
2021/06/11 05:16:32;;;;;;;7.88;5.55;;;16.70;99.90;;;;;;12381993;28;20050;-36
2021/06/11 05:22:34;;;;;;;8.55;5.30;;;16.80;99.90;;;;;;12377950;28;20085;-35
2021/06/11 05:28:36;;;;;;;10.23;5.82;;;16.90;99.90;;;;;;12381462;28;20510;-36
2021/06/11 05:34:38;;;;;;;8.30;5.30;;;16.90;99.90;;;;;;12387686;28;20054;-36
2021/06/11 05:40:40;;;;;;;9.25;5.65;;;17.00;99.90;;;;;;12383554;28;20441;-36
2021/06/11 05:46:42;;;;;;;9.25;5.57;;;17.10;99.90;;;;;;12381408;28;20050;-38
2021/06/11 05:52:44;;;;;;;11.77;5.43;;;17.20;99.90;;;;;;12385665;28;20042;-36
2021/06/11 05:58:47;;;;;;;9.57;4.78;;;17.30;99.90;;;;;;12385632;28;20136;-35
2021/06/11 06:04:49;;;;;;;12.63;5.93;;;17.40;99.90;;;;;;12389126;28;20099;-36
2021/06/11 06:10:51;;;;;;;10.68;5.80;;;17.50;99.90;;;;;;12381630;28;20053;-35
2021/06/11 06:16:53;;;;;;;10.82;5.75;;;17.60;99.90;;;;;;12389741;28;20050;-38
2021/06/11 06:22:54;;;;;;;11.57;6.50;;;17.70;99.90;;;;;;12386699;28;20076;-36
2021/06/11 06:28:56;;;;;;;12.48;6.60;;;17.80;99.90;;;;;;12378966;28;20050;-36
2021/06/11 06:34:58;;;;;;;13.70;6.97;;;17.90;99.90;;;;;;12384056;28;20058;-36
2021/06/11 06:41:01;;;;;;;9.20;7.03;;;18.00;99.90;;;;;;12368698;28;20147;-36
2021/06/11 06:47:04;;;;;;;12.13;7.45;;;18.30;99.90;;;;;;12380591;28;20046;-36
2021/06/11 06:53:06;;;;;;;12.90;7.70;;;18.30;99.90;;;;;;12380214;28;20053;-35
2021/06/11 06:59:07;;;;;;;12.40;8.90;;;18.50;99.90;;;;;;12375166;28;20066;-36
2021/06/11 07:05:10;;;;;;;13.88;8.73;;;18.70;99.90;;;;;;12380520;28;20046;-37
2021/06/11 07:11:12;;;;;;;11.80;9.40;;;19.00;99.90;;;;;;12382793;28;20125;-37
2021/06/11 07:17:13;;;;;;;12.80;10.57;;;19.50;99.90;;;;;;12379457;28;20057;-35
2021/06/11 07:23:15;;;;;;;11.15;9.40;;;19.70;99.90;;;;;;12384954;28;20077;-36
2021/06/11 07:29:17;;;;;;;11.38;9.90;;;19.90;99.90;;;;;;12379109;28;20050;-37
2021/06/11 07:35:20;;;;;;;15.88;10.95;;;20.00;99.90;;;;;;12380773;28;20502;-35
2021/06/11 07:41:22;;;;;;;12.07;9.90;;;20.20;99.90;;;;;;12383830;28;20054;-35
2021/06/11 07:47:24;;;;;;;14.95;10.20;;;20.50;99.90;;;;;;12386305;28;20049;-37
2021/06/11 07:53:26;;;;;;;15.68;10.77;;;20.60;99.90;;;;;;12388316;28;20088;-36
2021/06/11 07:59:28;;;;;;;10.07;8.95;;;20.80;99.90;;;;;;12391610;28;20058;-35
2021/06/11 08:05:30;;;;;;;13.68;10.30;;;20.90;99.90;;;;;;12390623;28;20413;-37
2021/06/11 08:11:32;;;;;;;15.02;10.10;;;21.10;99.90;;;;;;12391046;28;20046;-36
2021/06/11 08:17:34;;;;;;;12.65;10.50;;;21.20;99.90;;;;;;12391857;28;20142;-35
2021/06/11 08:23:36;;;;;;;16.08;10.68;;;21.30;99.90;;;;;;12389351;28;20065;-35
2021/06/11 08:29:38;;;;;;;15.05;10.65;;;21.50;99.90;;;;;;12388965;28;20426;-36
2021/06/11 08:35:40;;;;;;;14.65;10.40;;;21.70;99.90;;;;;;12390372;28;20425;-36
2021/06/11 08:41:42;;;;;;;10.85;9.50;;;21.70;99.90;;;;;;12389429;28;20092;-36
2021/06/11 08:47:48;;;;;;;14.48;9.93;;;22.00;99.90;;;;;;12387911;28;20497;-35
2021/06/11 08:53:50;;;;;;;13.27;9.45;;;22.10;99.90;;;;;;12383992;28;20418;-39
2021/06/11 08:59:53;;;;;;;13.55;9.93;;;22.40;99.90;;;;;;12385990;28;20568;-36
2021/06/11 09:05:55;;;;;;;8.93;6.63;;;22.60;99.90;;;;;;12383047;28;20037;-37
2021/06/11 09:11:56;;;;;;;8.50;5.13;;;22.90;99.90;;;;;;12390095;28;20120;-39
2021/06/11 09:18:15;;;;;;;8.38;5.85;;;22.90;99.90;;;;;;12380424;28;20050;-36
2021/06/11 09:24:27;;;;;;;8.85;6.47;;;22.90;99.90;;;;;;12387971;28;20872;-35
2021/06/11 09:30:33;;;;;;;7.32;5.32;;;23.10;99.90;;;;;;12384572;28;20077;-36
2021/06/11 09:36:35;;;;;;;9.38;5.43;;;23.20;99.90;;;;;;12376065;28;20061;-36
2021/06/11 09:42:48;;;;;;;8.57;4.93;;;22.90;99.90;;;;;;12384857;28;20774;-36
2021/06/11 09:49:16;;;;;;;10.23;5.60;;;23.20;99.90;;;;;;12386442;28;20047;-35
2021/06/11 09:55:43;;;;;;;9.25;4.85;;;23.50;99.90;;;;;;12385271;28;20302;-36
2021/06/11 10:02:13;;;;;;;7.65;4.13;;;23.70;99.90;;;;;;12382305;28;20128;-36
2021/06/11 10:08:16;;;;;;;5.82;4.30;;;24.00;99.90;;;;;;12377777;28;20076;-37
2021/06/11 10:14:18;;;;;;;7.35;4.32;;;24.50;99.90;;;;;;12382944;28;20480;-36
2021/06/11 10:20:20;;;;;;;10.80;4.50;;;24.70;99.90;;;;;;12388290;28;20057;-36
2021/06/11 10:26:22;;;;;;;7.72;4.28;;;24.70;99.90;;;;;;12385371;28;20057;-36
2021/06/11 10:32:24;;;;;;;6.57;4.28;;;24.40;99.90;;;;;;12370609;28;20442;-38
2021/06/11 10:38:35;;;;;;;6.10;3.92;;;23.80;99.90;;;;;;12383963;28;20049;-35
2021/06/11 10:44:42;;;;;;;6.60;4.68;;;23.80;99.90;;;;;;12383826;28;20060;-36
2021/06/11 10:50:45;;;;;;;9.18;4.50;;;24.10;99.90;;;;;;12382543;28;20520;-36
2021/06/11 10:56:56;;;;;;;7.03;4.80;;;24.60;99.90;;;;;;12380531;28;20487;-38
2021/06/11 11:03:00;;;;;;;7.28;3.60;;;25.00;99.90;;;;;;12385173;28;20137;-36
2021/06/11 11:09:05;;;;;;;7.55;3.70;;;25.10;99.90;;;;;;12388115;28;20100;-36
2021/06/11 11:15:07;;;;;;;6.70;3.40;;;25.00;99.90;;;;;;12383120;28;20054;-39
2021/06/11 11:21:29;;;;;;;6.10;3.67;;;25.50;99.90;;;;;;12387504;28;20046;-37
2021/06/11 11:27:32;;;;;;;6.20;3.10;;;25.80;99.90;;;;;;12399822;28;20054;-35
2021/06/11 11:33:35;;;;;;;5.55;3.05;;;25.80;99.90;;;;;;12391545;28;20046;-36
2021/06/11 11:39:38;;;;;;;5.57;3.00;;;26.00;99.90;;;;;;12394457;28;20073;-36
2021/06/11 11:45:43;;;;;;;5.65;2.75;;;26.40;99.90;;;;;;12392048;28;20399;-36
2021/06/11 11:51:45;;;;;;;5.85;2.97;;;26.60;99.90;;;;;;12387830;28;20170;-35
2021/06/11 11:57:47;;;;;;;5.32;2.50;;;26.60;99.90;;;;;;12396265;28;20086;-36
2021/06/11 12:03:49;;;;;;;4.90;2.83;;;26.70;99.90;;;;;;12388900;28;20167;-38
2021/06/11 12:09:53;;;;;;;6.63;4.00;;;26.70;99.90;;;;;;12388879;28;20095;-36
2021/06/11 12:15:55;;;;;;;9.63;3.00;;;26.40;99.90;;;;;;12381999;28;20058;-36
2021/06/11 12:21:57;;;;;;;4.95;3.00;;;26.50;99.90;;;;;;12390411;28;20089;-36
2021/06/11 12:28:00;;;;;;;5.22;2.70;;;26.80;99.90;;;;;;12383965;28;20535;-36
2021/06/11 12:34:02;;;;;;;5.37;3.27;;;26.60;99.90;;;;;;12376627;28;20053;-36
2021/06/11 12:40:05;;;;;;;4.00;2.23;;;27.10;99.90;;;;;;12378550;28;20310;-36
2021/06/11 12:46:07;;;;;;;3.97;2.00;;;27.10;99.90;;;;;;12380927;28;20047;-36
2021/06/11 12:52:09;;;;;;;4.73;2.50;;;27.60;99.90;;;;;;12389746;28;21284;-36
2021/06/11 12:58:11;;;;;;;4.67;2.13;;;27.50;99.90;;;;;;12432246;28;20505;-38
2021/06/11 13:04:13;;;;;;;5.05;2.15;;;27.10;99.90;;;;;;12397162;28;20119;-37
2021/06/11 13:10:15;;;;;;;4.27;2.30;;;27.20;99.90;;;;;;12386236;28;20096;-38
2021/06/11 13:16:17;;;;;;;5.78;2.35;;;27.40;99.90;;;;;;12380632;28;20136;-39
2021/06/11 13:22:19;;;;;;;3.72;2.30;;;27.50;99.90;;;;;;12374769;28;20081;-36
2021/06/11 13:28:21;;;;;;;5.03;2.50;;;27.40;99.90;;;;;;12383329;28;20054;-36
2021/06/11 13:34:23;;;;;;;3.87;2.30;;;28.00;99.90;;;;;;12379553;28;20054;-37
2021/06/11 13:40:24;;;;;;;4.27;2.57;;;28.00;99.90;;;;;;12382026;28;20149;-36
2021/06/11 13:46:26;;;;;;;5.53;2.63;;;27.50;99.90;;;;;;12389061;28;20050;-38
2021/06/11 13:52:28;;;;;;;6.50;2.30;;;27.50;99.90;;;;;;12371187;28;20141;-36
2021/06/11 13:58:30;;;;;;;3.23;2.40;;;27.50;99.90;;;;;;12388247;28;20448;-36
2021/06/11 14:04:32;;;;;;;5.17;2.23;;;27.90;99.90;;;;;;12389480;28;20685;-36
2021/06/11 14:10:34;;;;;;;2.93;2.00;;;27.80;99.90;;;;;;12383235;28;20096;-36
2021/06/11 14:16:36;;;;;;;8.93;2.23;;;27.50;99.90;;;;;;12374903;28;20057;-37
2021/06/11 14:22:38;;;;;;;4.00;1.77;;;27.80;99.90;;;;;;12378038;28;22009;-35
2021/06/11 14:28:40;;;;;;;5.27;2.40;;;27.90;99.90;;;;;;12364410;28;20042;-36
2021/06/11 14:34:42;;;;;;;14.10;2.83;;;28.00;99.90;;;;;;12382915;28;20293;-36
2021/06/11 14:40:44;;;;;;;4.50;2.37;;;27.50;99.90;;;;;;12372765;28;20065;-37
2021/06/11 14:46:46;;;;;;;3.80;1.95;;;27.20;99.90;;;;;;12375063;28;20072;-37
2021/06/11 14:52:51;;;;;;;4.33;2.03;;;27.20;99.90;;;;;;12380393;28;20042;-36
2021/06/11 14:58:54;;;;;;;3.28;1.88;;;26.50;99.90;;;;;;12393095;28;20066;-36
2021/06/11 15:04:56;;;;;;;2.80;1.40;;;26.50;99.90;;;;;;12398175;28;20050;-36
2021/06/11 15:10:57;;;;;;;3.78;1.52;;;27.20;99.90;;;;;;12400856;28;20042;-36
2021/06/11 15:16:59;;;;;;;4.47;1.50;;;26.80;99.90;;;;;;12404398;28;20144;-36
2021/06/11 15:23:03;;;;;;;2.97;1.50;;;27.10;99.90;;;;;;12391321;28;20046;-37
2021/06/11 15:29:05;;;;;;;2.33;1.55;;;27.50;99.90;;;;;;12386108;28;20072;-37
2021/06/11 15:35:07;;;;;;;3.72;1.25;;;27.10;99.90;;;;;;12392671;28;20860;-37
2021/06/11 15:41:09;;;;;;;2.63;1.45;;;27.70;99.90;;;;;;12386600;28;20050;-37
2021/06/11 15:47:11;;;;;;;3.03;1.30;;;28.00;99.90;;;;;;12389484;28;20390;-36
2021/06/11 15:53:13;;;;;;;3.47;1.27;;;27.40;99.90;;;;;;12391788;28;20081;-35
2021/06/11 15:59:15;;;;;;;2.70;1.40;;;27.20;99.90;;;;;;12381315;28;20084;-37
2021/06/11 16:05:17;;;;;;;2.88;1.70;;;26.60;99.90;;;;;;12382096;28;20042;-36
2021/06/11 16:11:19;;;;;;;2.17;1.25;;;26.30;99.90;;;;;;12376571;28;20042;-35
2021/06/11 16:17:21;;;;;;;2.55;1.20;;;26.40;99.90;;;;;;12378288;28;20058;-37
2021/06/11 16:23:23;;;;;;;2.55;1.63;;;26.00;99.90;;;;;;12380238;28;20468;-36
2021/06/11 16:29:24;;;;;;;3.45;1.60;;;25.60;99.90;;;;;;12381038;28;20050;-35
2021/06/11 16:35:26;;;;;;;3.67;1.42;;;25.60;99.90;;;;;;12379853;28;20077;-36
2021/06/11 16:41:28;;;;;;;2.55;1.08;;;25.70;99.90;;;;;;12383831;28;20108;-35
2021/06/11 16:47:30;;;;;;;2.28;1.20;;;25.80;99.90;;;;;;12384691;28;20045;-37
2021/06/11 16:53:33;;;;;;;1.67;1.15;;;26.00;99.90;;;;;;12382637;28;20046;-36
2021/06/11 16:59:34;;;;;;;2.13;1.10;;;26.80;99.90;;;;;;12383254;28;20084;-37
2021/06/11 17:05:36;;;;;;;2.60;1.30;;;27.30;99.90;;;;;;12384829;28;20457;-36
2021/06/11 17:11:38;;;;;;;3.27;1.00;;;27.00;99.90;;;;;;12384417;28;20109;-35
2021/06/11 17:17:40;;;;;;;6.70;1.70;;;27.50;99.90;;;;;;12382222;28;20049;-36
2021/06/11 17:23:43;;;;;;;;;;;27.90;99.90;;;;;;12386180;28;20065;-36
2021/06/11 17:29:47;;;;;;;2.55;1.15;;;27.80;99.90;;;;;;12384698;28;19987;-38
2021/06/11 17:35:51;;;;;;;1.95;1.23;;;27.20;99.90;;;;;;12386797;28;20449;-35
2021/06/11 17:41:54;;;;;;;4.68;1.00;;;27.40;99.90;;;;;;12382389;28;20543;-35
2021/06/11 17:47:56;;;;;;;2.40;1.25;;;27.10;99.90;;;;;;12383205;28;20038;-35
2021/06/11 17:54:04;;;;;;;2.72;1.30;;;26.20;99.90;;;;;;12383411;28;20038;-36
2021/06/11 18:00:07;;;;;;;2.97;1.50;;;25.70;99.90;;;;;;12387803;28;20054;-36
2021/06/11 18:06:11;;;;;;;1.98;1.10;;;26.00;99.90;;;;;;12388114;28;20141;-36
2021/06/11 18:12:20;;;;;;;1.92;1.00;;;26.50;99.90;;;;;;12388361;28;20129;-36
2021/06/11 18:18:22;;;;;;;3.10;1.30;;;26.30;99.90;;;;;;12386123;28;20050;-37
2021/06/11 18:24:29;;;;;;;2.30;1.35;;;25.90;99.90;;;;;;12387619;28;20482;-35
2021/06/11 18:30:31;;;;;;;3.10;1.52;;;25.40;99.90;;;;;;12387734;28;20132;-39
2021/06/11 18:36:34;;;;;;;4.93;1.70;;;25.00;99.90;;;;;;12381941;28;20141;-36
2021/06/11 18:42:49;;;;;;;3.75;1.42;;;24.80;99.90;;;;;;12384664;28;20045;-35
2021/06/11 18:48:53;;;;;;;3.40;1.33;;;24.30;99.90;;;;;;12387553;28;20050;-38
2021/06/11 18:54:56;;;;;;;2.50;1.38;;;24.00;99.90;;;;;;12383987;28;20054;-37
2021/06/11 19:00:59;;;;;;;2.55;1.80;;;23.90;99.90;;;;;;12382054;28;20578;-36
2021/06/11 19:07:10;;;;;;;5.10;1.98;;;23.60;99.90;;;;;;12387900;28;20096;-36
2021/06/11 19:13:13;;;;;;;3.25;1.73;;;23.20;99.90;;;;;;12382997;28;20074;-36
2021/06/11 19:19:20;;;;;;;3.33;1.73;;;23.10;99.90;;;;;;12385500;28;20111;-36
2021/06/11 19:25:23;;;;;;;5.55;2.40;;;23.20;99.90;;;;;;12383912;28;20062;-36
2021/06/11 19:31:41;;;;;;;4.63;2.00;;;23.30;99.90;;;;;;12386394;28;20348;-38
2021/06/11 19:37:48;;;;;;;3.67;2.00;;;22.80;99.90;;;;;;12380917;28;20446;-37
2021/06/11 19:43:51;;;;;;;6.22;1.88;;;22.50;99.90;;;;;;12391309;28;20068;-36
2021/06/11 19:50:00;;;;;;;3.67;2.20;;;22.50;99.90;;;;;;12393969;28;20486;-37
2021/06/11 19:56:13;;;;;;;4.78;2.10;;;22.50;99.90;;;;;;12440334;28;20490;-36
2021/06/11 20:02:14;;;;;;;3.00;1.90;;;22.30;99.90;;;;;;12442113;28;20099;-38
2021/06/11 20:08:16;;;;;;;4.63;1.88;;;22.10;99.90;;;;;;12449750;28;20050;-37
2021/06/11 20:14:18;;;;;;;6.13;3.13;;;22.10;99.90;;;;;;12443589;28;20071;-35
2021/06/11 20:20:20;;;;;;;9.02;4.10;;;22.40;99.90;;;;;;12444020;28;20111;-36
2021/06/11 20:26:22;;;;;;;8.60;4.93;;;22.30;99.90;;;;;;12445528;28;20184;-36
2021/06/11 20:32:27;;;;;;;10.60;5.95;;;21.10;99.90;;;;;;12440814;28;20046;-35
2021/06/11 20:38:28;;;;;;;10.07;5.50;;;20.50;99.90;;;;;;12443087;28;20809;-38
2021/06/11 20:44:30;;;;;;;9.45;5.78;;;20.50;99.90;;;;;;12441330;28;20049;-36
2021/06/11 20:50:33;;;;;;;7.72;5.75;;;20.40;99.90;;;;;;12439890;28;20088;-35
2021/06/11 20:56:35;;;;;;;7.20;5.97;;;20.20;99.90;;;;;;12441495;28;20639;-35
2021/06/11 21:02:37;;;;;;;7.82;6.10;;;20.20;99.90;;;;;;12441207;28;20102;-36
2021/06/11 21:08:43;;;;;;;8.18;6.82;;;20.10;99.90;;;;;;12448483;28;20778;-35
2021/06/11 21:14:47;;;;;;;13.82;7.95;;;19.80;99.90;;;;;;12437820;28;20456;-36
2021/06/11 21:20:48;;;;;;;12.43;9.30;;;19.90;99.90;;;;;;12443882;28;20493;-36
2021/06/11 21:26:50;;;;;;;11.02;8.32;;;19.90;99.90;;;;;;12442774;28;20456;-36
2021/06/11 21:32:53;;;;;;;14.43;9.63;;;19.90;99.90;;;;;;12438981;28;20050;-36
2021/06/11 21:38:55;;;;;;;10.80;9.27;;;19.70;99.90;;;;;;12440746;28;20050;-36
2021/06/11 21:44:57;;;;;;;11.50;8.50;;;19.80;99.90;;;;;;12434376;28;20061;-36
2021/06/11 21:50:59;;;;;;;16.55;10.30;;;19.70;99.90;;;;;;12442287;28;20141;-35
2021/06/11 21:57:01;;;;;;;12.80;9.55;;;19.80;99.90;;;;;;12438463;28;20429;-35
2021/06/11 22:03:03;;;;;;;10.25;8.32;;;19.90;99.90;;;;;;12439566;28;20050;-36
2021/06/11 22:09:07;;;;;;;10.52;8.40;;;20.10;99.90;;;;;;12445118;28;20641;-35
2021/06/11 22:15:09;;;;;;;;;;;20.40;99.90;;;;;;12436307;28;20873;-36
2021/06/11 22:21:11;;;;;;;13.25;9.52;;;20.20;99.90;;;;;;12435426;28;20491;-37
2021/06/11 22:27:13;;;;;;;16.27;10.65;;;20.20;99.90;;;;;;12436351;28;20467;-35
2021/06/11 22:33:17;;;;;;;11.57;9.23;;;20.30;99.90;;;;;;12436482;28;20103;-35
2021/06/11 22:39:19;;;;;;;11.98;9.32;;;20.30;99.90;;;;;;12435107;28;20094;-35
2021/06/11 22:45:21;;;;;;;14.40;10.35;;;20.30;99.90;;;;;;12432910;28;20057;-35
2021/06/11 22:51:23;;;;;;;16.65;10.50;;;20.10;99.90;;;;;;12436810;28;20061;-36
2021/06/11 22:57:25;;;;;;;13.85;9.43;;;20.00;99.90;;;;;;12432032;28;20064;-36
2021/06/11 23:03:27;;;;;;;16.42;9.93;;;19.80;99.90;;;;;;12432419;28;20090;-36
2021/06/11 23:09:29;;;;;;;12.73;9.40;;;19.70;99.90;;;;;;12432105;28;20111;-35
2021/06/11 23:15:31;;;;;;;12.73;9.73;;;19.70;99.90;;;;;;12437760;28;20053;-35
2021/06/11 23:21:37;;;;;;;13.52;8.80;;;19.50;99.90;;;;;;12446688;28;20045;-35
2021/06/11 23:27:39;;;;;;;21.13;9.15;;;19.30;99.90;;;;;;12448680;28;20050;-36
2021/06/11 23:33:41;;;;;;;14.10;9.25;;;19.30;99.90;;;;;;12442961;28;20050;-35
2021/06/11 23:39:43;;;;;;;13.02;9.25;;;19.20;99.90;;;;;;12444798;28;20081;-36
2021/06/11 23:45:45;;;;;;;13.23;10.15;;;19.00;99.90;;;;;;12445261;28;20942;-36
2021/06/11 23:51:47;;;;;;;16.25;10.43;;;19.00;99.90;;;;;;12442723;28;20041;-35
2021/06/11 23:57:49;;;;;;;17.13;10.30;;;18.90;99.90;;;;;;12442080;28;20057;-36
